sensor_id;sensor_type;location;lat;lon;timestamp;P1;durP1;ratioP1;P2;durP2;ratioP2
12878;SDS011;20617;49.476;10.986;2024-01-30T00:00:42;12.45;;;7.05;;
12878;SDS011;20617;49.476;10.986;2024-01-30T00:02:43;11.15;;;6.85;;
12878;SDS011;20617;49.476;10.986;2024-01-30T00:04:44;15.13;;;7.43;;
12878;SDS011;20617;49.476;10.986;2024-01-30T00:06:44;12.55;;;7.65;;
12878;SDS011;20617;49.476;10.986;2024-01-30T00:08:45;11.93;;;7.85;;
12878;SDS011;20617;49.476;10.986;2024-01-30T00:10:46;12.95;;;7.55;;
12878;SDS011;20617;49.476;10.986;2024-01-30T00:12:46;12.23;;;7.60;;
12878;SDS011;20617;49.476;10.986;2024-01-30T00:14:50;13.23;;;7.68;;
12878;SDS011;20617;49.476;10.986;2024-01-30T00:16:54;11.50;;;7.68;;
12878;SDS011;20617;49.476;10.986;2024-01-30T00:18:54;13.30;;;7.97;;
12878;SDS011;20617;49.476;10.986;2024-01-30T00:20:55;11.63;;;7.50;;
12878;SDS011;20617;49.476;10.986;2024-01-30T00:22:56;13.93;;;7.88;;
12878;SDS011;20617;49.476;10.986;2024-01-30T00:24:57;13.15;;;8.15;;
12878;SDS011;20617;49.476;10.986;2024-01-30T00:26:57;12.38;;;7.45;;
12878;SDS011;20617;49.476;10.986;2024-01-30T00:28:58;11.98;;;7.30;;
12878;SDS011;20617;49.476;10.986;2024-01-30T00:31:02;11.35;;;6.50;;
12878;SDS011;20617;49.476;10.986;2024-01-30T00:33:03;13.77;;;7.00;;
12878;SDS011;20617;49.476;10.986;2024-01-30T00:35:04;13.23;;;7.53;;
12878;SDS011;20617;49.476;10.986;2024-01-30T00:37:06;11.35;;;7.63;;
12878;SDS011;20617;49.476;10.986;2024-01-30T00:39:06;13.40;;;7.60;;
12878;SDS011;20617;49.476;10.986;2024-01-30T00:41:07;12.48;;;6.68;;
12878;SDS011;20617;49.476;10.986;2024-01-30T00:43:08;11.68;;;7.22;;
12878;SDS011;20617;49.476;10.986;2024-01-30T00:45:11;13.02;;;6.90;;
12878;SDS011;20617;49.476;10.986;2024-01-30T00:47:15;14.05;;;6.95;;
12878;SDS011;20617;49.476;10.986;2024-01-30T00:49:16;11.18;;;6.93;;
12878;SDS011;20617;49.476;10.986;2024-01-30T00:51:16;14.20;;;7.03;;
12878;SDS011;20617;49.476;10.986;2024-01-30T00:53:17;10.55;;;6.90;;
12878;SDS011;20617;49.476;10.986;2024-01-30T00:55:18;11.57;;;7.50;;
12878;SDS011;20617;49.476;10.986;2024-01-30T00:57:19;15.65;;;7.55;;
12878;SDS011;20617;49.476;10.986;2024-01-30T00:59:20;9.50;;;7.18;;
12878;SDS011;20617;49.476;10.986;2024-01-30T01:01:20;12.77;;;7.38;;
12878;SDS011;20617;49.476;10.986;2024-01-30T01:03:24;12.07;;;7.47;;
12878;SDS011;20617;49.476;10.986;2024-01-30T01:05:25;13.23;;;7.90;;
12878;SDS011;20617;49.476;10.986;2024-01-30T01:07:25;13.45;;;6.95;;
12878;SDS011;20617;49.476;10.986;2024-01-30T01:09:27;13.20;;;7.15;;
12878;SDS011;20617;49.476;10.986;2024-01-30T01:11:28;10.02;;;6.68;;
12878;SDS011;20617;49.476;10.986;2024-01-30T01:13:29;13.35;;;7.43;;
12878;SDS011;20617;49.476;10.986;2024-01-30T01:15:30;11.85;;;7.03;;
12878;SDS011;20617;49.476;10.986;2024-01-30T01:17:31;11.40;;;7.43;;
12878;SDS011;20617;49.476;10.986;2024-01-30T01:19:34;11.90;;;7.25;;
12878;SDS011;20617;49.476;10.986;2024-01-30T01:21:36;11.98;;;7.38;;
12878;SDS011;20617;49.476;10.986;2024-01-30T01:23:37;11.52;;;7.43;;
12878;SDS011;20617;49.476;10.986;2024-01-30T01:25:37;11.38;;;6.70;;
12878;SDS011;20617;49.476;10.986;2024-01-30T01:27:38;11.75;;;6.78;;
12878;SDS011;20617;49.476;10.986;2024-01-30T01:29:39;12.43;;;7.20;;
12878;SDS011;20617;49.476;10.986;2024-01-30T01:31:40;12.35;;;7.03;;
12878;SDS011;20617;49.476;10.986;2024-01-30T01:33:40;11.38;;;6.57;;
12878;SDS011;20617;49.476;10.986;2024-01-30T01:35:44;10.77;;;6.68;;
12878;SDS011;20617;49.476;10.986;2024-01-30T01:37:45;9.23;;;6.18;;
12878;SDS011;20617;49.476;10.986;2024-01-30T01:39:46;12.15;;;6.55;;
12878;SDS011;20617;49.476;10.986;2024-01-30T01:41:47;12.95;;;7.38;;
12878;SDS011;20617;49.476;10.986;2024-01-30T01:43:48;9.93;;;6.80;;
12878;SDS011;20617;49.476;10.986;2024-01-30T01:45:49;14.38;;;7.25;;
12878;SDS011;20617;49.476;10.986;2024-01-30T01:47:50;10.35;;;6.25;;
12878;SDS011;20617;49.476;10.986;2024-01-30T01:49:51;10.60;;;6.53;;
12878;SDS011;20617;49.476;10.986;2024-01-30T01:51:58;11.18;;;6.75;;
12878;SDS011;20617;49.476;10.986;2024-01-30T01:54:00;11.77;;;6.22;;
12878;SDS011;20617;49.476;10.986;2024-01-30T01:56:04;9.65;;;6.20;;
12878;SDS011;20617;49.476;10.986;2024-01-30T01:58:05;12.40;;;6.53;;
12878;SDS011;20617;49.476;10.986;2024-01-30T02:00:07;9.55;;;6.18;;
12878;SDS011;20617;49.476;10.986;2024-01-30T02:02:09;9.80;;;5.85;;
12878;SDS011;20617;49.476;10.986;2024-01-30T02:04:13;9.93;;;6.00;;
12878;SDS011;20617;49.476;10.986;2024-01-30T02:06:13;12.00;;;6.35;;
12878;SDS011;20617;49.476;10.986;2024-01-30T02:08:17;11.45;;;6.22;;
12878;SDS011;20617;49.476;10.986;2024-01-30T02:10:18;9.23;;;6.35;;
12878;SDS011;20617;49.476;10.986;2024-01-30T02:12:19;10.27;;;6.65;;
12878;SDS011;20617;49.476;10.986;2024-01-30T02:14:20;10.48;;;6.38;;
12878;SDS011;20617;49.476;10.986;2024-01-30T02:16:20;9.95;;;6.43;;
12878;SDS011;20617;49.476;10.986;2024-01-30T02:18:22;10.25;;;6.18;;
12878;SDS011;20617;49.476;10.986;2024-01-30T02:20:23;11.85;;;6.43;;
12878;SDS011;20617;49.476;10.986;2024-01-30T02:22:27;11.50;;;6.43;;
12878;SDS011;20617;49.476;10.986;2024-01-30T02:24:29;11.32;;;6.82;;
12878;SDS011;20617;49.476;10.986;2024-01-30T02:26:29;10.68;;;6.13;;
12878;SDS011;20617;49.476;10.986;2024-01-30T02:28:30;12.43;;;6.85;;
12878;SDS011;20617;49.476;10.986;2024-01-30T02:30:31;11.73;;;6.10;;
12878;SDS011;20617;49.476;10.986;2024-01-30T02:32:31;9.95;;;6.10;;
12878;SDS011;20617;49.476;10.986;2024-01-30T02:34:32;8.35;;;5.82;;
12878;SDS011;20617;49.476;10.986;2024-01-30T02:36:33;10.05;;;6.15;;
12878;SDS011;20617;49.476;10.986;2024-01-30T02:38:36;9.82;;;6.40;;
12878;SDS011;20617;49.476;10.986;2024-01-30T02:40:37;11.07;;;6.50;;
12878;SDS011;20617;49.476;10.986;2024-01-30T02:42:38;9.00;;;6.30;;
12878;SDS011;20617;49.476;10.986;2024-01-30T02:44:39;11.48;;;6.10;;
12878;SDS011;20617;49.476;10.986;2024-01-30T02:46:40;10.20;;;5.93;;
12878;SDS011;20617;49.476;10.986;2024-01-30T02:48:41;9.77;;;5.70;;
12878;SDS011;20617;49.476;10.986;2024-01-30T02:50:41;13.07;;;7.50;;
12878;SDS011;20617;49.476;10.986;2024-01-30T02:52:42;11.98;;;6.95;;
12878;SDS011;20617;49.476;10.986;2024-01-30T02:54:45;10.32;;;6.75;;
12878;SDS011;20617;49.476;10.986;2024-01-30T02:56:46;10.43;;;6.32;;
12878;SDS011;20617;49.476;10.986;2024-01-30T02:58:47;10.27;;;6.43;;
12878;SDS011;20617;49.476;10.986;2024-01-30T03:00:48;9.43;;;6.43;;
12878;SDS011;20617;49.476;10.986;2024-01-30T03:02:48;12.27;;;6.57;;
12878;SDS011;20617;49.476;10.986;2024-01-30T03:04:51;13.07;;;6.82;;
12878;SDS011;20617;49.476;10.986;2024-01-30T03:06:52;9.82;;;6.72;;
12878;SDS011;20617;49.476;10.986;2024-01-30T03:08:53;9.32;;;6.47;;
12878;SDS011;20617;49.476;10.986;2024-01-30T03:10:56;9.40;;;5.85;;
12878;SDS011;20617;49.476;10.986;2024-01-30T03:12:57;8.57;;;6.53;;
12878;SDS011;20617;49.476;10.986;2024-01-30T03:14:58;11.70;;;7.03;;
12878;SDS011;20617;49.476;10.986;2024-01-30T03:16:58;11.48;;;7.18;;
12878;SDS011;20617;49.476;10.986;2024-01-30T03:18:59;10.23;;;6.22;;
12878;SDS011;20617;49.476;10.986;2024-01-30T03:21:00;9.93;;;6.80;;
12878;SDS011;20617;49.476;10.986;2024-01-30T03:23:01;11.35;;;7.05;;
12878;SDS011;20617;49.476;10.986;2024-01-30T03:25:04;12.25;;;7.18;;
12878;SDS011;20617;49.476;10.986;2024-01-30T03:27:07;9.55;;;6.40;;
12878;SDS011;20617;49.476;10.986;2024-01-30T03:29:08;12.02;;;6.60;;
12878;SDS011;20617;49.476;10.986;2024-01-30T03:31:09;9.80;;;6.45;;
12878;SDS011;20617;49.476;10.986;2024-01-30T03:33:09;10.73;;;7.28;;
12878;SDS011;20617;49.476;10.986;2024-01-30T03:35:10;10.70;;;7.03;;
12878;SDS011;20617;49.476;10.986;2024-01-30T03:37:11;11.60;;;7.30;;
12878;SDS011;20617;49.476;10.986;2024-01-30T03:39:11;10.27;;;6.30;;
12878;SDS011;20617;49.476;10.986;2024-01-30T03:41:12;12.27;;;7.07;;
12878;SDS011;20617;49.476;10.986;2024-01-30T03:43:16;12.82;;;6.57;;
12878;SDS011;20617;49.476;10.986;2024-01-30T03:45:16;11.05;;;6.70;;
12878;SDS011;20617;49.476;10.986;2024-01-30T03:47:17;9.50;;;6.70;;
12878;SDS011;20617;49.476;10.986;2024-01-30T03:49:18;10.82;;;6.95;;
12878;SDS011;20617;49.476;10.986;2024-01-30T03:51:18;11.75;;;7.40;;
12878;SDS011;20617;49.476;10.986;2024-01-30T03:53:19;14.35;;;8.13;;
12878;SDS011;20617;49.476;10.986;2024-01-30T03:55:20;9.90;;;6.55;;
12878;SDS011;20617;49.476;10.986;2024-01-30T03:57:20;11.23;;;6.78;;
12878;SDS011;20617;49.476;10.986;2024-01-30T03:59:24;10.57;;;7.18;;
12878;SDS011;20617;49.476;10.986;2024-01-30T04:01:25;11.00;;;7.22;;
12878;SDS011;20617;49.476;10.986;2024-01-30T04:03:25;11.40;;;6.45;;
12878;SDS011;20617;49.476;10.986;2024-01-30T04:05:26;12.25;;;7.40;;
12878;SDS011;20617;49.476;10.986;2024-01-30T04:07:27;11.98;;;6.85;;
12878;SDS011;20617;49.476;10.986;2024-01-30T04:09:28;10.18;;;7.25;;
12878;SDS011;20617;49.476;10.986;2024-01-30T04:11:28;13.48;;;7.10;;
12878;SDS011;20617;49.476;10.986;2024-01-30T04:13:29;10.20;;;6.90;;
12878;SDS011;20617;49.476;10.986;2024-01-30T04:15:32;14.35;;;7.75;;
12878;SDS011;20617;49.476;10.986;2024-01-30T04:17:33;11.85;;;7.43;;
12878;SDS011;20617;49.476;10.986;2024-01-30T04:19:36;11.05;;;6.75;;
12878;SDS011;20617;49.476;10.986;2024-01-30T04:21:37;12.77;;;6.90;;
12878;SDS011;20617;49.476;10.986;2024-01-30T04:23:39;9.10;;;7.35;;
12878;SDS011;20617;49.476;10.986;2024-01-30T04:25:40;12.35;;;7.53;;
12878;SDS011;20617;49.476;10.986;2024-01-30T04:27:40;10.68;;;6.90;;
12878;SDS011;20617;49.476;10.986;2024-01-30T04:29:41;11.88;;;6.68;;
12878;SDS011;20617;49.476;10.986;2024-01-30T04:31:45;12.90;;;7.05;;
12878;SDS011;20617;49.476;10.986;2024-01-30T04:33:45;11.30;;;7.38;;
12878;SDS011;20617;49.476;10.986;2024-01-30T04:35:46;10.40;;;6.72;;
12878;SDS011;20617;49.476;10.986;2024-01-30T04:37:47;9.23;;;5.85;;
12878;SDS011;20617;49.476;10.986;2024-01-30T04:39:48;12.45;;;7.60;;
12878;SDS011;20617;49.476;10.986;2024-01-30T04:41:49;11.30;;;7.25;;
12878;SDS011;20617;49.476;10.986;2024-01-30T04:43:49;13.63;;;7.53;;
12878;SDS011;20617;49.476;10.986;2024-01-30T04:45:50;10.38;;;7.13;;
12878;SDS011;20617;49.476;10.986;2024-01-30T04:47:53;11.52;;;6.97;;
12878;SDS011;20617;49.476;10.986;2024-01-30T04:49:54;11.38;;;6.75;;
12878;SDS011;20617;49.476;10.986;2024-01-30T04:51:55;13.93;;;7.20;;
12878;SDS011;20617;49.476;10.986;2024-01-30T04:53:55;10.18;;;6.95;;
12878;SDS011;20617;49.476;10.986;2024-01-30T04:55:59;11.75;;;7.22;;
12878;SDS011;20617;49.476;10.986;2024-01-30T04:58:00;10.70;;;6.93;;
12878;SDS011;20617;49.476;10.986;2024-01-30T05:00:01;10.38;;;7.00;;
12878;SDS011;20617;49.476;10.986;2024-01-30T05:02:02;10.07;;;7.20;;
12878;SDS011;20617;49.476;10.986;2024-01-30T05:04:06;9.65;;;7.00;;
12878;SDS011;20617;49.476;10.986;2024-01-30T05:06:07;10.23;;;7.03;;
12878;SDS011;20617;49.476;10.986;2024-01-30T05:08:08;8.85;;;6.85;;
12878;SDS011;20617;49.476;10.986;2024-01-30T05:10:09;9.90;;;6.72;;
12878;SDS011;20617;49.476;10.986;2024-01-30T05:12:09;11.15;;;7.20;;
12878;SDS011;20617;49.476;10.986;2024-01-30T05:14:10;10.88;;;7.05;;
12878;SDS011;20617;49.476;10.986;2024-01-30T05:16:11;12.80;;;8.05;;
12878;SDS011;20617;49.476;10.986;2024-01-30T05:18:12;12.10;;;8.32;;
12878;SDS011;20617;49.476;10.986;2024-01-30T05:20:16;12.77;;;8.05;;
12878;SDS011;20617;49.476;10.986;2024-01-30T05:22:17;12.27;;;6.93;;
12878;SDS011;20617;49.476;10.986;2024-01-30T05:24:19;11.23;;;8.05;;
12878;SDS011;20617;49.476;10.986;2024-01-30T05:26:20;12.75;;;8.18;;
12878;SDS011;20617;49.476;10.986;2024-01-30T05:28:20;12.95;;;8.25;;
12878;SDS011;20617;49.476;10.986;2024-01-30T05:30:21;12.63;;;7.80;;
12878;SDS011;20617;49.476;10.986;2024-01-30T05:32:22;13.00;;;7.38;;
12878;SDS011;20617;49.476;10.986;2024-01-30T05:34:23;12.45;;;7.03;;
12878;SDS011;20617;49.476;10.986;2024-01-30T05:36:26;12.07;;;8.10;;
12878;SDS011;20617;49.476;10.986;2024-01-30T05:38:27;14.18;;;8.27;;
12878;SDS011;20617;49.476;10.986;2024-01-30T05:40:30;13.38;;;7.93;;
12878;SDS011;20617;49.476;10.986;2024-01-30T05:42:31;15.25;;;8.57;;
12878;SDS011;20617;49.476;10.986;2024-01-30T05:44:32;11.82;;;7.20;;
12878;SDS011;20617;49.476;10.986;2024-01-30T05:46:33;14.18;;;8.00;;
12878;SDS011;20617;49.476;10.986;2024-01-30T05:48:34;10.45;;;6.97;;
12878;SDS011;20617;49.476;10.986;2024-01-30T05:50:34;10.82;;;7.03;;
12878;SDS011;20617;49.476;10.986;2024-01-30T05:52:38;11.10;;;7.20;;
12878;SDS011;20617;49.476;10.986;2024-01-30T05:54:38;11.00;;;6.82;;
12878;SDS011;20617;49.476;10.986;2024-01-30T05:56:39;9.15;;;7.03;;
12878;SDS011;20617;49.476;10.986;2024-01-30T05:58:40;12.80;;;7.72;;
12878;SDS011;20617;49.476;10.986;2024-01-30T06:00:41;12.75;;;7.43;;
12878;SDS011;20617;49.476;10.986;2024-01-30T06:02:41;12.20;;;7.45;;
12878;SDS011;20617;49.476;10.986;2024-01-30T06:04:42;13.10;;;7.82;;
12878;SDS011;20617;49.476;10.986;2024-01-30T06:06:44;11.70;;;7.80;;
12878;SDS011;20617;49.476;10.986;2024-01-30T06:08:47;10.57;;;7.40;;
12878;SDS011;20617;49.476;10.986;2024-01-30T06:10:48;11.45;;;6.85;;
12878;SDS011;20617;49.476;10.986;2024-01-30T06:12:48;12.40;;;7.75;;
12878;SDS011;20617;49.476;10.986;2024-01-30T06:14:49;14.70;;;8.38;;
12878;SDS011;20617;49.476;10.986;2024-01-30T06:16:50;13.73;;;7.88;;
12878;SDS011;20617;49.476;10.986;2024-01-30T06:18:50;13.25;;;8.10;;
12878;SDS011;20617;49.476;10.986;2024-01-30T06:20:51;14.93;;;7.60;;
12878;SDS011;20617;49.476;10.986;2024-01-30T06:22:54;17.13;;;9.60;;
12878;SDS011;20617;49.476;10.986;2024-01-30T06:24:58;15.82;;;9.68;;
12878;SDS011;20617;49.476;10.986;2024-01-30T06:26:58;11.60;;;7.85;;
12878;SDS011;20617;49.476;10.986;2024-01-30T06:28:59;13.85;;;8.80;;
12878;SDS011;20617;49.476;10.986;2024-01-30T06:31:00;16.27;;;9.52;;
12878;SDS011;20617;49.476;10.986;2024-01-30T06:33:01;15.27;;;9.18;;
12878;SDS011;20617;49.476;10.986;2024-01-30T06:35:02;12.25;;;8.75;;
12878;SDS011;20617;49.476;10.986;2024-01-30T06:37:04;17.52;;;9.73;;
12878;SDS011;20617;49.476;10.986;2024-01-30T06:39:04;14.75;;;10.23;;
12878;SDS011;20617;49.476;10.986;2024-01-30T06:41:08;18.83;;;9.57;;
12878;SDS011;20617;49.476;10.986;2024-01-30T06:43:08;15.40;;;10.07;;
12878;SDS011;20617;49.476;10.986;2024-01-30T06:45:09;15.45;;;9.85;;
12878;SDS011;20617;49.476;10.986;2024-01-30T06:47:10;17.98;;;10.63;;
12878;SDS011;20617;49.476;10.986;2024-01-30T06:49:11;21.40;;;13.32;;
12878;SDS011;20617;49.476;10.986;2024-01-30T06:51:12;20.23;;;11.50;;
12878;SDS011;20617;49.476;10.986;2024-01-30T06:53:12;15.43;;;10.35;;
12878;SDS011;20617;49.476;10.986;2024-01-30T06:55:13;16.10;;;10.77;;
12878;SDS011;20617;49.476;10.986;2024-01-30T06:57:17;16.10;;;10.98;;
12878;SDS011;20617;49.476;10.986;2024-01-30T06:59:17;19.17;;;11.98;;
12878;SDS011;20617;49.476;10.986;2024-01-30T07:01:18;22.40;;;12.50;;
12878;SDS011;20617;49.476;10.986;2024-01-30T07:03:19;16.85;;;10.50;;
12878;SDS011;20617;49.476;10.986;2024-01-30T07:05:20;17.40;;;11.68;;
12878;SDS011;20617;49.476;10.986;2024-01-30T07:07:20;15.20;;;11.10;;
12878;SDS011;20617;49.476;10.986;2024-01-30T07:09:21;19.55;;;11.45;;
12878;SDS011;20617;49.476;10.986;2024-01-30T07:11:22;15.38;;;10.45;;
12878;SDS011;20617;49.476;10.986;2024-01-30T07:13:26;15.95;;;11.18;;
12878;SDS011;20617;49.476;10.986;2024-01-30T07:15:27;15.27;;;10.33;;
12878;SDS011;20617;49.476;10.986;2024-01-30T07:17:29;19.10;;;11.68;;
12878;SDS011;20617;49.476;10.986;2024-01-30T07:19:29;15.90;;;11.38;;
12878;SDS011;20617;49.476;10.986;2024-01-30T07:21:30;16.27;;;11.35;;
12878;SDS011;20617;49.476;10.986;2024-01-30T07:23:31;18.67;;;11.55;;
12878;SDS011;20617;49.476;10.986;2024-01-30T07:25:32;15.80;;;11.65;;
12878;SDS011;20617;49.476;10.986;2024-01-30T07:27:33;17.88;;;11.35;;
12878;SDS011;20617;49.476;10.986;2024-01-30T07:29:37;18.23;;;11.48;;
12878;SDS011;20617;49.476;10.986;2024-01-30T07:31:37;18.60;;;11.73;;
12878;SDS011;20617;49.476;10.986;2024-01-30T07:33:38;20.75;;;11.68;;
12878;SDS011;20617;49.476;10.986;2024-01-30T07:35:39;17.75;;;11.40;;
12878;SDS011;20617;49.476;10.986;2024-01-30T07:37:39;19.85;;;12.00;;
12878;SDS011;20617;49.476;10.986;2024-01-30T07:39:40;20.50;;;12.30;;
12878;SDS011;20617;49.476;10.986;2024-01-30T07:41:41;21.52;;;12.85;;
12878;SDS011;20617;49.476;10.986;2024-01-30T07:43:43;18.63;;;13.02;;
12878;SDS011;20617;49.476;10.986;2024-01-30T07:45:47;19.50;;;12.93;;
12878;SDS011;20617;49.476;10.986;2024-01-30T07:47:48;19.70;;;11.95;;
12878;SDS011;20617;49.476;10.986;2024-01-30T07:49:49;18.70;;;12.00;;
12878;SDS011;20617;49.476;10.986;2024-01-30T07:51:50;21.35;;;12.95;;
12878;SDS011;20617;49.476;10.986;2024-01-30T07:53:51;22.63;;;14.82;;
12878;SDS011;20617;49.476;10.986;2024-01-30T07:55:52;19.05;;;14.95;;
12878;SDS011;20617;49.476;10.986;2024-01-30T07:57:53;21.35;;;13.98;;
12878;SDS011;20617;49.476;10.986;2024-01-30T07:59:54;19.75;;;14.80;;
12878;SDS011;20617;49.476;10.986;2024-01-30T08:02:04;17.60;;;12.52;;
12878;SDS011;20617;49.476;10.986;2024-01-30T08:04:04;18.80;;;13.18;;
12878;SDS011;20617;49.476;10.986;2024-01-30T08:06:05;18.58;;;13.68;;
12878;SDS011;20617;49.476;10.986;2024-01-30T08:08:06;22.20;;;14.77;;
12878;SDS011;20617;49.476;10.986;2024-01-30T08:10:07;21.92;;;13.23;;
12878;SDS011;20617;49.476;10.986;2024-01-30T08:12:08;18.63;;;13.48;;
12878;SDS011;20617;49.476;10.986;2024-01-30T08:14:09;18.95;;;13.55;;
12878;SDS011;20617;49.476;10.986;2024-01-30T08:16:10;15.82;;;12.00;;
12878;SDS011;20617;49.476;10.986;2024-01-30T08:18:13;18.13;;;12.70;;
12878;SDS011;20617;49.476;10.986;2024-01-30T08:20:14;17.65;;;12.70;;
12878;SDS011;20617;49.476;10.986;2024-01-30T08:22:15;21.17;;;14.98;;
12878;SDS011;20617;49.476;10.986;2024-01-30T08:24:15;22.48;;;13.23;;
12878;SDS011;20617;49.476;10.986;2024-01-30T08:26:16;22.05;;;14.18;;
12878;SDS011;20617;49.476;10.986;2024-01-30T08:28:17;19.42;;;13.95;;
12878;SDS011;20617;49.476;10.986;2024-01-30T08:30:17;19.23;;;13.40;;
12878;SDS011;20617;49.476;10.986;2024-01-30T08:32:19;19.15;;;13.15;;
12878;SDS011;20617;49.476;10.986;2024-01-30T08:34:22;22.10;;;13.95;;
12878;SDS011;20617;49.476;10.986;2024-01-30T08:36:24;19.25;;;13.25;;
12878;SDS011;20617;49.476;10.986;2024-01-30T08:38:25;20.40;;;12.68;;
12878;SDS011;20617;49.476;10.986;2024-01-30T08:40:26;22.58;;;14.43;;
12878;SDS011;20617;49.476;10.986;2024-01-30T08:42:27;19.20;;;13.40;;
12878;SDS011;20617;49.476;10.986;2024-01-30T08:44:27;18.02;;;12.60;;
12878;SDS011;20617;49.476;10.986;2024-01-30T08:46:28;21.48;;;12.90;;
12878;SDS011;20617;49.476;10.986;2024-01-30T08:48:29;16.65;;;12.48;;
12878;SDS011;20617;49.476;10.986;2024-01-30T08:50:32;19.10;;;13.07;;
12878;SDS011;20617;49.476;10.986;2024-01-30T08:52:33;19.80;;;13.32;;
12878;SDS011;20617;49.476;10.986;2024-01-30T08:54:34;21.38;;;13.48;;
12878;SDS011;20617;49.476;10.986;2024-01-30T08:56:34;21.27;;;13.75;;
12878;SDS011;20617;49.476;10.986;2024-01-30T08:58:35;17.40;;;12.95;;
12878;SDS011;20617;49.476;10.986;2024-01-30T09:00:37;17.65;;;13.13;;
12878;SDS011;20617;49.476;10.986;2024-01-30T09:02:38;18.70;;;13.73;;
12878;SDS011;20617;49.476;10.986;2024-01-30T09:04:38;18.58;;;13.30;;
12878;SDS011;20617;49.476;10.986;2024-01-30T09:06:42;20.67;;;13.90;;
12878;SDS011;20617;49.476;10.986;2024-01-30T09:08:43;18.45;;;13.27;;
12878;SDS011;20617;49.476;10.986;2024-01-30T09:10:43;19.50;;;13.43;;
12878;SDS011;20617;49.476;10.986;2024-01-30T09:12:44;23.88;;;14.38;;
12878;SDS011;20617;49.476;10.986;2024-01-30T09:14:45;21.17;;;14.30;;
12878;SDS011;20617;49.476;10.986;2024-01-30T09:16:45;20.30;;;14.27;;
12878;SDS011;20617;49.476;10.986;2024-01-30T09:18:46;19.52;;;14.38;;
12878;SDS011;20617;49.476;10.986;2024-01-30T09:20:47;16.73;;;13.35;;
12878;SDS011;20617;49.476;10.986;2024-01-30T09:22:50;26.70;;;15.38;;
12878;SDS011;20617;49.476;10.986;2024-01-30T09:24:52;22.23;;;14.57;;
12878;SDS011;20617;49.476;10.986;2024-01-30T09:26:53;18.77;;;13.35;;
12878;SDS011;20617;49.476;10.986;2024-01-30T09:28:54;18.38;;;13.80;;
12878;SDS011;20617;49.476;10.986;2024-01-30T09:30:54;18.58;;;13.48;;
12878;SDS011;20617;49.476;10.986;2024-01-30T09:32:55;20.27;;;13.30;;
12878;SDS011;20617;49.476;10.986;2024-01-30T09:34:56;19.30;;;13.70;;
12878;SDS011;20617;49.476;10.986;2024-01-30T09:36:57;24.05;;;14.55;;
12878;SDS011;20617;49.476;10.986;2024-01-30T09:39:00;17.80;;;13.13;;
12878;SDS011;20617;49.476;10.986;2024-01-30T09:41:02;20.77;;;14.32;;
12878;SDS011;20617;49.476;10.986;2024-01-30T09:43:09;21.80;;;14.30;;
12878;SDS011;20617;49.476;10.986;2024-01-30T09:45:17;19.83;;;14.45;;
12878;SDS011;20617;49.476;10.986;2024-01-30T09:47:18;20.23;;;14.70;;
12878;SDS011;20617;49.476;10.986;2024-01-30T09:49:19;20.73;;;14.23;;
12878;SDS011;20617;49.476;10.986;2024-01-30T09:51:22;20.45;;;14.30;;
12878;SDS011;20617;49.476;10.986;2024-01-30T09:53:23;19.17;;;14.15;;
12878;SDS011;20617;49.476;10.986;2024-01-30T09:55:28;25.70;;;16.15;;
12878;SDS011;20617;49.476;10.986;2024-01-30T09:57:29;19.63;;;14.07;;
12878;SDS011;20617;49.476;10.986;2024-01-30T09:59:32;16.08;;;12.60;;
12878;SDS011;20617;49.476;10.986;2024-01-30T10:01:35;18.73;;;13.15;;
12878;SDS011;20617;49.476;10.986;2024-01-30T10:03:37;20.00;;;12.85;;
12878;SDS011;20617;49.476;10.986;2024-01-30T10:05:37;19.00;;;14.05;;
12878;SDS011;20617;49.476;10.986;2024-01-30T10:07:49;19.90;;;13.77;;
12878;SDS011;20617;49.476;10.986;2024-01-30T10:09:50;17.38;;;13.77;;
12878;SDS011;20617;49.476;10.986;2024-01-30T10:11:55;17.83;;;13.45;;
12878;SDS011;20617;49.476;10.986;2024-01-30T10:13:56;20.38;;;15.30;;
12878;SDS011;20617;49.476;10.986;2024-01-30T10:15:56;20.88;;;14.65;;
12878;SDS011;20617;49.476;10.986;2024-01-30T10:18:01;19.88;;;13.80;;
12878;SDS011;20617;49.476;10.986;2024-01-30T10:20:03;18.88;;;14.45;;
12878;SDS011;20617;49.476;10.986;2024-01-30T10:22:05;19.85;;;15.20;;
12878;SDS011;20617;49.476;10.986;2024-01-30T10:24:06;19.25;;;13.45;;
12878;SDS011;20617;49.476;10.986;2024-01-30T10:26:07;17.05;;;12.50;;
12878;SDS011;20617;49.476;10.986;2024-01-30T10:28:11;18.58;;;12.30;;
12878;SDS011;20617;49.476;10.986;2024-01-30T10:30:13;17.70;;;12.65;;
12878;SDS011;20617;49.476;10.986;2024-01-30T10:32:14;20.92;;;12.40;;
12878;SDS011;20617;49.476;10.986;2024-01-30T10:34:15;14.85;;;11.73;;
12878;SDS011;20617;49.476;10.986;2024-01-30T10:36:16;18.20;;;12.55;;
12878;SDS011;20617;49.476;10.986;2024-01-30T10:38:18;18.20;;;13.55;;
12878;SDS011;20617;49.476;10.986;2024-01-30T10:40:20;18.35;;;14.70;;
12878;SDS011;20617;49.476;10.986;2024-01-30T10:42:25;16.83;;;13.13;;
12878;SDS011;20617;49.476;10.986;2024-01-30T10:44:33;21.20;;;13.73;;
12878;SDS011;20617;49.476;10.986;2024-01-30T10:46:39;18.88;;;13.52;;
12878;SDS011;20617;49.476;10.986;2024-01-30T10:48:46;19.33;;;13.25;;
12878;SDS011;20617;49.476;10.986;2024-01-30T10:50:51;20.88;;;14.13;;
12878;SDS011;20617;49.476;10.986;2024-01-30T10:52:55;18.85;;;13.18;;
12878;SDS011;20617;49.476;10.986;2024-01-30T10:54:58;21.70;;;13.70;;
12878;SDS011;20617;49.476;10.986;2024-01-30T10:56:59;18.55;;;13.55;;
12878;SDS011;20617;49.476;10.986;2024-01-30T10:59:01;18.52;;;13.35;;
12878;SDS011;20617;49.476;10.986;2024-01-30T11:01:04;16.85;;;12.50;;
12878;SDS011;20617;49.476;10.986;2024-01-30T11:03:06;18.33;;;12.68;;
12878;SDS011;20617;49.476;10.986;2024-01-30T11:05:07;19.05;;;13.05;;
12878;SDS011;20617;49.476;10.986;2024-01-30T11:07:14;19.77;;;11.48;;
12878;SDS011;20617;49.476;10.986;2024-01-30T11:09:16;19.42;;;12.88;;
12878;SDS011;20617;49.476;10.986;2024-01-30T11:11:18;18.80;;;13.70;;
12878;SDS011;20617;49.476;10.986;2024-01-30T11:13:19;20.17;;;12.32;;
12878;SDS011;20617;49.476;10.986;2024-01-30T11:15:21;18.23;;;12.20;;
12878;SDS011;20617;49.476;10.986;2024-01-30T11:17:29;17.17;;;12.77;;
12878;SDS011;20617;49.476;10.986;2024-01-30T11:19:41;14.55;;;11.15;;
12878;SDS011;20617;49.476;10.986;2024-01-30T11:21:42;14.02;;;11.00;;
12878;SDS011;20617;49.476;10.986;2024-01-30T11:23:42;16.45;;;11.63;;
12878;SDS011;20617;49.476;10.986;2024-01-30T11:25:43;19.73;;;12.05;;
12878;SDS011;20617;49.476;10.986;2024-01-30T11:27:46;16.15;;;11.70;;
12878;SDS011;20617;49.476;10.986;2024-01-30T11:29:49;17.98;;;11.68;;
12878;SDS011;20617;49.476;10.986;2024-01-30T11:31:53;17.52;;;11.10;;
12878;SDS011;20617;49.476;10.986;2024-01-30T11:33:57;18.02;;;11.00;;
12878;SDS011;20617;49.476;10.986;2024-01-30T11:35:58;14.63;;;10.50;;
12878;SDS011;20617;49.476;10.986;2024-01-30T11:37:59;18.98;;;11.52;;
12878;SDS011;20617;49.476;10.986;2024-01-30T11:40:00;14.23;;;10.73;;
12878;SDS011;20617;49.476;10.986;2024-01-30T11:42:03;14.07;;;9.65;;
12878;SDS011;20617;49.476;10.986;2024-01-30T11:44:05;14.20;;;10.80;;
12878;SDS011;20617;49.476;10.986;2024-01-30T11:46:07;16.63;;;11.90;;